sensor_id;sensor_type;location;lat;lon;timestamp;temperature;humidity
2212;DHT22;48849;48.758;9.158;2023-09-19T00:01:39;21.10;99.90
2212;DHT22;48849;48.758;9.158;2023-09-19T00:04:08;21.00;99.90
2212;DHT22;48849;48.758;9.158;2023-09-19T00:06:36;21.00;99.90
2212;DHT22;48849;48.758;9.158;2023-09-19T00:09:03;21.00;99.90
2212;DHT22;48849;48.758;9.158;2023-09-19T00:11:30;21.00;99.90
2212;DHT22;48849;48.758;9.158;2023-09-19T00:13:57;21.00;99.90
2212;DHT22;48849;48.758;9.158;2023-09-19T00:16:25;21.00;99.90
2212;DHT22;48849;48.758;9.158;2023-09-19T00:18:52;21.00;99.90
2212;DHT22;48849;48.758;9.158;2023-09-19T00:21:20;21.00;99.90
2212;DHT22;48849;48.758;9.158;2023-09-19T00:23:47;20.90;99.90
2212;DHT22;48849;48.758;9.158;2023-09-19T00:26:14;20.90;99.90
2212;DHT22;48849;48.758;9.158;2023-09-19T00:28:43;20.90;99.90
2212;DHT22;48849;48.758;9.158;2023-09-19T00:31:10;20.90;99.90
2212;DHT22;48849;48.758;9.158;2023-09-19T00:33:37;20.90;99.90
2212;DHT22;48849;48.758;9.158;2023-09-19T00:36:04;21.00;99.90
2212;DHT22;48849;48.758;9.158;2023-09-19T00:38:32;20.90;99.90
2212;DHT22;48849;48.758;9.158;2023-09-19T00:40:59;20.90;99.90
2212;DHT22;48849;48.758;9.158;2023-09-19T00:43:26;21.00;99.90
2212;DHT22;48849;48.758;9.158;2023-09-19T00:45:55;20.90;99.90
2212;DHT22;48849;48.758;9.158;2023-09-19T00:48:23;20.90;99.90
2212;DHT22;48849;48.758;9.158;2023-09-19T00:50:50;20.90;99.90
2212;DHT22;48849;48.758;9.158;2023-09-19T00:53:21;20.90;99.90
2212;DHT22;48849;48.758;9.158;2023-09-19T00:55:50;20.90;99.90
2212;DHT22;48849;48.758;9.158;2023-09-19T00:58:17;20.90;99.90
2212;DHT22;48849;48.758;9.158;2023-09-19T01:00:44;20.90;99.90
2212;DHT22;48849;48.758;9.158;2023-09-19T01:03:11;20.90;99.90
2212;DHT22;48849;48.758;9.158;2023-09-19T01:05:44;20.90;99.90
2212;DHT22;48849;48.758;9.158;2023-09-19T01:08:14;20.90;99.90
2212;DHT22;48849;48.758;9.158;2023-09-19T01:10:55;20.90;99.90
2212;DHT22;48849;48.758;9.158;2023-09-19T01:13:29;20.90;99.90
2212;DHT22;48849;48.758;9.158;2023-09-19T01:16:03;20.80;99.90
2212;DHT22;48849;48.758;9.158;2023-09-19T01:18:40;20.90;99.90
2212;DHT22;48849;48.758;9.158;2023-09-19T01:21:18;20.90;99.90
2212;DHT22;48849;48.758;9.158;2023-09-19T01:24:13;20.90;99.90
2212;DHT22;48849;48.758;9.158;2023-09-19T01:27:06;20.90;99.90
2212;DHT22;48849;48.758;9.158;2023-09-19T01:29:42;20.90;99.90
2212;DHT22;48849;48.758;9.158;2023-09-19T01:32:18;20.90;99.90
2212;DHT22;48849;48.758;9.158;2023-09-19T01:34:54;20.90;99.90
2212;DHT22;48849;48.758;9.158;2023-09-19T01:37:31;20.90;99.90
2212;DHT22;48849;48.758;9.158;2023-09-19T01:40:10;20.90;99.90
2212;DHT22;48849;48.758;9.158;2023-09-19T01:42:45;20.90;99.90
2212;DHT22;48849;48.758;9.158;2023-09-19T01:45:30;20.90;99.90
2212;DHT22;48849;48.758;9.158;2023-09-19T01:48:18;20.90;99.90
2212;DHT22;48849;48.758;9.158;2023-09-19T01:50:52;20.90;99.90
2212;DHT22;48849;48.758;9.158;2023-09-19T01:53:28;20.90;99.90
2212;DHT22;48849;48.758;9.158;2023-09-19T01:56:08;20.90;99.90
2212;DHT22;48849;48.758;9.158;2023-09-19T01:58:44;20.80;99.90
2212;DHT22;48849;48.758;9.158;2023-09-19T02:01:18;20.90;99.90
2212;DHT22;48849;48.758;9.158;2023-09-19T02:03:47;20.80;99.90
2212;DHT22;48849;48.758;9.158;2023-09-19T02:06:15;20.90;99.90
2212;DHT22;48849;48.758;9.158;2023-09-19T02:08:45;20.90;99.90
2212;DHT22;48849;48.758;9.158;2023-09-19T02:11:15;20.90;99.90
2212;DHT22;48849;48.758;9.158;2023-09-19T02:13:47;20.90;99.90
2212;DHT22;48849;48.758;9.158;2023-09-19T02:16:26;20.90;99.90
2212;DHT22;48849;48.758;9.158;2023-09-19T02:19:03;20.90;99.90
2212;DHT22;48849;48.758;9.158;2023-09-19T02:21:35;20.90;99.90
2212;DHT22;48849;48.758;9.158;2023-09-19T02:24:13;20.80;99.90
2212;DHT22;48849;48.758;9.158;2023-09-19T02:26:48;20.90;99.90
2212;DHT22;48849;48.758;9.158;2023-09-19T02:29:18;20.90;99.90
2212;DHT22;48849;48.758;9.158;2023-09-19T02:31:47;20.80;99.90
2212;DHT22;48849;48.758;9.158;2023-09-19T02:34:16;20.80;99.90
2212;DHT22;48849;48.758;9.158;2023-09-19T02:36:49;20.90;99.90
2212;DHT22;48849;48.758;9.158;2023-09-19T02:39:22;20.90;99.90
2212;DHT22;48849;48.758;9.158;2023-09-19T02:41:58;20.90;99.90
2212;DHT22;48849;48.758;9.158;2023-09-19T02:44:33;20.80;99.90
2212;DHT22;48849;48.758;9.158;2023-09-19T02:47:08;20.70;99.90
2212;DHT22;48849;48.758;9.158;2023-09-19T02:49:48;20.80;99.90
2212;DHT22;48849;48.758;9.158;2023-09-19T02:52:23;20.80;99.90
2212;DHT22;48849;48.758;9.158;2023-09-19T02:55:31;20.90;99.90
2212;DHT22;48849;48.758;9.158;2023-09-19T02:58:13;20.70;99.90
2212;DHT22;48849;48.758;9.158;2023-09-19T03:00:48;20.70;99.90
2212;DHT22;48849;48.758;9.158;2023-09-19T03:03:33;20.80;99.90
2212;DHT22;48849;48.758;9.158;2023-09-19T03:06:08;20.60;99.90
2212;DHT22;48849;48.758;9.158;2023-09-19T03:08:41;20.60;99.90
2212;DHT22;48849;48.758;9.158;2023-09-19T03:11:12;20.70;99.90
2212;DHT22;48849;48.758;9.158;2023-09-19T03:13:44;20.70;99.90
2212;DHT22;48849;48.758;9.158;2023-09-19T03:16:11;20.70;99.90
2212;DHT22;48849;48.758;9.158;2023-09-19T03:18:40;20.70;99.90
2212;DHT22;48849;48.758;9.158;2023-09-19T03:21:10;20.70;99.90
2212;DHT22;48849;48.758;9.158;2023-09-19T03:23:46;20.70;99.90
2212;DHT22;48849;48.758;9.158;2023-09-19T03:26:16;20.70;99.90
2212;DHT22;48849;48.758;9.158;2023-09-19T03:28:45;20.60;99.90
2212;DHT22;48849;48.758;9.158;2023-09-19T03:31:16;20.60;99.90
2212;DHT22;48849;48.758;9.158;2023-09-19T03:33:46;20.60;99.90
2212;DHT22;48849;48.758;9.158;2023-09-19T03:36:19;20.70;99.90
2212;DHT22;48849;48.758;9.158;2023-09-19T03:38:50;20.60;99.90
2212;DHT22;48849;48.758;9.158;2023-09-19T03:41:28;20.60;99.90
2212;DHT22;48849;48.758;9.158;2023-09-19T03:47:01;20.70;99.90
2212;DHT22;48849;48.758;9.158;2023-09-19T03:49:45;20.60;99.90
2212;DHT22;48849;48.758;9.158;2023-09-19T03:55:35;20.70;99.90
2212;DHT22;48849;48.758;9.158;2023-09-19T03:58:09;20.70;99.90
2212;DHT22;48849;48.758;9.158;2023-09-19T04:00:58;20.70;99.90
2212;DHT22;48849;48.758;9.158;2023-09-19T04:03:32;20.70;99.90
2212;DHT22;48849;48.758;9.158;2023-09-19T04:06:17;20.60;99.90
2212;DHT22;48849;48.758;9.158;2023-09-19T04:08:48;20.60;99.90
2212;DHT22;48849;48.758;9.158;2023-09-19T04:11:35;20.70;99.90
2212;DHT22;48849;48.758;9.158;2023-09-19T04:14:21;20.70;99.90
2212;DHT22;48849;48.758;9.158;2023-09-19T04:16:57;20.60;99.90
2212;DHT22;48849;48.758;9.158;2023-09-19T04:20:08;20.60;99.90
2212;DHT22;48849;48.758;9.158;2023-09-19T04:22:49;20.60;99.90
2212;DHT22;48849;48.758;9.158;2023-09-19T04:25:24;20.70;99.90
2212;DHT22;48849;48.758;9.158;2023-09-19T04:28:06;20.60;99.90
2212;DHT22;48849;48.758;9.158;2023-09-19T04:30:48;20.60;99.90
2212;DHT22;48849;48.758;9.158;2023-09-19T04:33:31;20.70;99.90
2212;DHT22;48849;48.758;9.158;2023-09-19T04:36:29;20.70;99.90
2212;DHT22;48849;48.758;9.158;2023-09-19T04:39:28;20.70;99.90
2212;DHT22;48849;48.758;9.158;2023-09-19T04:42:17;20.60;99.90
2212;DHT22;48849;48.758;9.158;2023-09-19T04:45:03;20.60;99.90
2212;DHT22;48849;48.758;9.158;2023-09-19T04:48:07;20.60;99.90
2212;DHT22;48849;48.758;9.158;2023-09-19T04:54:15;20.60;99.90
2212;DHT22;48849;48.758;9.158;2023-09-19T04:57:01;20.60;99.90
2212;DHT22;48849;48.758;9.158;2023-09-19T04:59:40;20.60;99.90
2212;DHT22;48849;48.758;9.158;2023-09-19T05:02:50;20.60;99.90
2212;DHT22;48849;48.758;9.158;2023-09-19T05:05:29;20.60;99.90
2212;DHT22;48849;48.758;9.158;2023-09-19T05:11:17;20.70;99.90
2212;DHT22;48849;48.758;9.158;2023-09-19T05:14:32;20.60;99.90
2212;DHT22;48849;48.758;9.158;2023-09-19T05:17:18;20.60;99.90
2212;DHT22;48849;48.758;9.158;2023-09-19T05:20:21;20.60;99.90
2212;DHT22;48849;48.758;9.158;2023-09-19T05:23:18;20.50;99.90
2212;DHT22;48849;48.758;9.158;2023-09-19T05:26:21;20.50;99.90
2212;DHT22;48849;48.758;9.158;2023-09-19T05:29:10;20.40;99.90
2212;DHT22;48849;48.758;9.158;2023-09-19T05:31:45;20.40;99.90
2212;DHT22;48849;48.758;9.158;2023-09-19T05:37:53;20.40;99.90
2212;DHT22;48849;48.758;9.158;2023-09-19T05:44:01;20.30;99.90
2212;DHT22;48849;48.758;9.158;2023-09-19T05:46:44;20.40;99.90
2212;DHT22;48849;48.758;9.158;2023-09-19T05:49:34;20.40;99.90
2212;DHT22;48849;48.758;9.158;2023-09-19T05:52:20;20.30;99.90
2212;DHT22;48849;48.758;9.158;2023-09-19T05:55:08;20.30;99.90
2212;DHT22;48849;48.758;9.158;2023-09-19T05:57:54;20.30;99.90
2212;DHT22;48849;48.758;9.158;2023-09-19T06:00:32;20.30;99.90
2212;DHT22;48849;48.758;9.158;2023-09-19T06:03:13;20.30;99.90
2212;DHT22;48849;48.758;9.158;2023-09-19T06:05:40;20.30;99.90
2212;DHT22;48849;48.758;9.158;2023-09-19T06:08:08;20.40;99.90
2212;DHT22;48849;48.758;9.158;2023-09-19T06:10:36;20.30;99.90
2212;DHT22;48849;48.758;9.158;2023-09-19T06:13:03;20.30;99.90
2212;DHT22;48849;48.758;9.158;2023-09-19T06:15:31;20.30;99.90
2212;DHT22;48849;48.758;9.158;2023-09-19T06:18:01;20.30;99.90
2212;DHT22;48849;48.758;9.158;2023-09-19T06:20:30;20.30;99.90
2212;DHT22;48849;48.758;9.158;2023-09-19T06:22:58;20.30;99.90
2212;DHT22;48849;48.758;9.158;2023-09-19T06:25:27;20.30;99.90
2212;DHT22;48849;48.758;9.158;2023-09-19T06:27:56;20.30;99.90
2212;DHT22;48849;48.758;9.158;2023-09-19T06:30:24;20.30;99.90
2212;DHT22;48849;48.758;9.158;2023-09-19T06:32:55;20.30;99.90
2212;DHT22;48849;48.758;9.158;2023-09-19T06:35:22;20.30;99.90
2212;DHT22;48849;48.758;9.158;2023-09-19T06:37:49;20.30;99.90
2212;DHT22;48849;48.758;9.158;2023-09-19T06:40:16;20.20;99.90
2212;DHT22;48849;48.758;9.158;2023-09-19T06:42:44;20.20;99.90
2212;DHT22;48849;48.758;9.158;2023-09-19T06:45:13;20.20;99.90
2212;DHT22;48849;48.758;9.158;2023-09-19T06:47:43;20.20;99.90
2212;DHT22;48849;48.758;9.158;2023-09-19T06:50:11;20.20;99.90
2212;DHT22;48849;48.758;9.158;2023-09-19T06:52:41;20.20;99.90
2212;DHT22;48849;48.758;9.158;2023-09-19T06:55:11;20.20;99.90
2212;DHT22;48849;48.758;9.158;2023-09-19T06:57:39;20.20;99.90
2212;DHT22;48849;48.758;9.158;2023-09-19T07:00:07;20.10;99.90
2212;DHT22;48849;48.758;9.158;2023-09-19T07:02:42;20.20;99.90
2212;DHT22;48849;48.758;9.158;2023-09-19T07:05:09;20.20;99.90
2212;DHT22;48849;48.758;9.158;2023-09-19T07:07:37;20.20;99.90
2212;DHT22;48849;48.758;9.158;2023-09-19T07:10:05;20.20;99.90
2212;DHT22;48849;48.758;9.158;2023-09-19T07:12:33;20.20;99.90
2212;DHT22;48849;48.758;9.158;2023-09-19T07:15:00;20.20;99.90
2212;DHT22;48849;48.758;9.158;2023-09-19T07:17:32;20.20;99.90
2212;DHT22;48849;48.758;9.158;2023-09-19T07:24:17;20.20;99.90
2212;DHT22;48849;48.758;9.158;2023-09-19T07:26:59;20.20;99.90
2212;DHT22;48849;48.758;9.158;2023-09-19T07:29:29;20.10;99.90
2212;DHT22;48849;48.758;9.158;2023-09-19T07:32:13;20.20;99.90
2212;DHT22;48849;48.758;9.158;2023-09-19T07:35:16;20.10;99.90
2212;DHT22;48849;48.758;9.158;2023-09-19T07:38:11;20.20;99.90
2212;DHT22;48849;48.758;9.158;2023-09-19T07:44:42;20.10;99.90
2212;DHT22;48849;48.758;9.158;2023-09-19T07:56:38;20.10;99.90
2212;DHT22;48849;48.758;9.158;2023-09-19T07:59:08;20.10;99.90
2212;DHT22;48849;48.758;9.158;2023-09-19T08:01:37;20.10;99.90
2212;DHT22;48849;48.758;9.158;2023-09-19T08:04:16;20.10;99.90
2212;DHT22;48849;48.758;9.158;2023-09-19T08:06:56;20.10;99.90
2212;DHT22;48849;48.758;9.158;2023-09-19T08:13:04;20.20;99.90
2212;DHT22;48849;48.758;9.158;2023-09-19T08:16:01;20.20;99.90
2212;DHT22;48849;48.758;9.158;2023-09-19T08:21:54;20.20;99.90
2212;DHT22;48849;48.758;9.158;2023-09-19T08:24:21;20.20;99.90
2212;DHT22;48849;48.758;9.158;2023-09-19T08:26:49;20.30;99.90
2212;DHT22;48849;48.758;9.158;2023-09-19T08:30:03;20.30;99.90
2212;DHT22;48849;48.758;9.158;2023-09-19T08:32:44;20.30;99.90
2212;DHT22;48849;48.758;9.158;2023-09-19T08:35:12;20.30;99.90
2212;DHT22;48849;48.758;9.158;2023-09-19T08:38:08;20.40;99.90
2212;DHT22;48849;48.758;9.158;2023-09-19T08:44:27;20.40;99.90
2212;DHT22;48849;48.758;9.158;2023-09-19T08:47:01;20.40;99.90
2212;DHT22;48849;48.758;9.158;2023-09-19T08:52:52;20.50;99.90
2212;DHT22;48849;48.758;9.158;2023-09-19T08:55:27;20.50;99.90
2212;DHT22;48849;48.758;9.158;2023-09-19T08:58:05;20.50;99.90
2212;DHT22;48849;48.758;9.158;2023-09-19T09:00:35;20.50;99.90
2212;DHT22;48849;48.758;9.158;2023-09-19T09:03:03;20.50;99.90
2212;DHT22;48849;48.758;9.158;2023-09-19T09:05:34;20.60;99.90
2212;DHT22;48849;48.758;9.158;2023-09-19T09:11:26;20.60;99.90
2212;DHT22;48849;48.758;9.158;2023-09-19T09:13:58;20.60;99.90
2212;DHT22;48849;48.758;9.158;2023-09-19T09:16:49;20.70;99.90
2212;DHT22;48849;48.758;9.158;2023-09-19T09:19:25;20.60;99.90
2212;DHT22;48849;48.758;9.158;2023-09-19T09:21:52;20.60;99.90
2212;DHT22;48849;48.758;9.158;2023-09-19T09:24:28;20.60;99.90
2212;DHT22;48849;48.758;9.158;2023-09-19T09:26:57;20.70;99.90
2212;DHT22;48849;48.758;9.158;2023-09-19T09:29:48;20.70;99.90
2212;DHT22;48849;48.758;9.158;2023-09-19T09:32:23;20.70;99.90
2212;DHT22;48849;48.758;9.158;2023-09-19T09:34:51;20.60;99.90
2212;DHT22;48849;48.758;9.158;2023-09-19T09:37:19;20.70;99.90
2212;DHT22;48849;48.758;9.158;2023-09-19T09:39:50;20.70;99.90
2212;DHT22;48849;48.758;9.158;2023-09-19T09:42:31;20.70;99.90
2212;DHT22;48849;48.758;9.158;2023-09-19T09:45:14;20.90;99.90
2212;DHT22;48849;48.758;9.158;2023-09-19T09:47:42;20.80;99.90
2212;DHT22;48849;48.758;9.158;2023-09-19T09:50:23;20.80;99.90
2212;DHT22;48849;48.758;9.158;2023-09-19T09:52:55;20.90;99.90
2212;DHT22;48849;48.758;9.158;2023-09-19T09:55:58;20.90;99.90
2212;DHT22;48849;48.758;9.158;2023-09-19T09:58:27;20.90;99.90
2212;DHT22;48849;48.758;9.158;2023-09-19T10:00:56;21.00;99.90
2212;DHT22;48849;48.758;9.158;2023-09-19T10:03:32;21.00;99.90
2212;DHT22;48849;48.758;9.158;2023-09-19T10:06:05;20.90;99.90
2212;DHT22;48849;48.758;9.158;2023-09-19T10:09:04;21.00;99.90
2212;DHT22;48849;48.758;9.158;2023-09-19T10:11:43;21.10;99.90
2212;DHT22;48849;48.758;9.158;2023-09-19T10:14:13;21.10;99.90
2212;DHT22;48849;48.758;9.158;2023-09-19T10:16:46;21.10;99.90
2212;DHT22;48849;48.758;9.158;2023-09-19T10:19:21;21.10;99.90
2212;DHT22;48849;48.758;9.158;2023-09-19T10:21:50;21.10;99.90
2212;DHT22;48849;48.758;9.158;2023-09-19T10:24:18;21.10;99.90
2212;DHT22;48849;48.758;9.158;2023-09-19T10:26:45;21.10;99.90
2212;DHT22;48849;48.758;9.158;2023-09-19T10:29:18;21.10;99.90
2212;DHT22;48849;48.758;9.158;2023-09-19T10:31:47;21.10;99.90
2212;DHT22;48849;48.758;9.158;2023-09-19T10:34:17;21.20;99.90
2212;DHT22;48849;48.758;9.158;2023-09-19T10:36:45;21.20;99.90
2212;DHT22;48849;48.758;9.158;2023-09-19T10:39:14;21.30;99.90
2212;DHT22;48849;48.758;9.158;2023-09-19T10:41:50;21.30;99.90
2212;DHT22;48849;48.758;9.158;2023-09-19T10:44:22;21.50;99.90
2212;DHT22;48849;48.758;9.158;2023-09-19T10:46:50;21.40;99.90
2212;DHT22;48849;48.758;9.158;2023-09-19T10:49:18;21.40;99.90
2212;DHT22;48849;48.758;9.158;2023-09-19T10:51:46;21.40;99.90
2212;DHT22;48849;48.758;9.158;2023-09-19T10:54:17;21.50;99.90
2212;DHT22;48849;48.758;9.158;2023-09-19T10:56:48;21.50;99.90
2212;DHT22;48849;48.758;9.158;2023-09-19T10:59:17;21.50;99.90
2212;DHT22;48849;48.758;9.158;2023-09-19T11:01:48;21.50;99.90
2212;DHT22;48849;48.758;9.158;2023-09-19T11:04:24;21.50;99.90
2212;DHT22;48849;48.758;9.158;2023-09-19T11:07:04;21.60;99.90
2212;DHT22;48849;48.758;9.158;2023-09-19T11:09:44;21.60;99.90
2212;DHT22;48849;48.758;9.158;2023-09-19T11:12:12;21.60;99.90
2212;DHT22;48849;48.758;9.158;2023-09-19T11:15:02;21.60;99.90
2212;DHT22;48849;48.758;9.158;2023-09-19T11:17:33;21.70;99.90
2212;DHT22;48849;48.758;9.158;2023-09-19T11:20:22;21.80;99.90
2212;DHT22;48849;48.758;9.158;2023-09-19T11:23:18;21.90;99.90
2212;DHT22;48849;48.758;9.158;2023-09-19T11:25:48;22.40;99.90
2212;DHT22;48849;48.758;9.158;2023-09-19T11:28:35;22.60;99.90
2212;DHT22;48849;48.758;9.158;2023-09-19T11:35:10;22.50;99.90
2212;DHT22;48849;48.758;9.158;2023-09-19T11:41:38;22.70;99.90
2212;DHT22;48849;48.758;9.158;2023-09-19T11:44:34;22.60;99.90
2212;DHT22;48849;48.758;9.158;2023-09-19T11:47:04;22.50;99.90
2212;DHT22;48849;48.758;9.158;2023-09-19T11:49:32;22.60;99.90
2212;DHT22;48849;48.758;9.158;2023-09-19T11:52:02;22.90;99.90
2212;DHT22;48849;48.758;9.158;2023-09-19T11:54:31;23.20;99.90
2212;DHT22;48849;48.758;9.158;2023-09-19T11:57:04;23.70;99.90
2212;DHT22;48849;48.758;9.158;2023-09-19T11:59:38;24.00;99.90
2212;DHT22;48849;48.758;9.158;2023-09-19T12:02:08;24.00;99.90
2212;DHT22;48849;48.758;9.158;2023-09-19T12:04:38;24.00;99.90
2212;DHT22;48849;48.758;9.158;2023-09-19T12:07:09;24.00;99.90
2212;DHT22;48849;48.758;9.158;2023-09-19T12:09:41;24.10;99.90
2212;DHT22;48849;48.758;9.158;2023-09-19T12:12:10;24.40;99.90
2212;DHT22;48849;48.758;9.158;2023-09-19T12:14:38;24.60;99.90
2212;DHT22;48849;48.758;9.158;2023-09-19T12:17:07;24.70;99.90
2212;DHT22;48849;48.758;9.158;2023-09-19T12:19:34;24.60;99.90
2212;DHT22;48849;48.758;9.158;2023-09-19T12:22:02;24.70;99.90
2212;DHT22;48849;48.758;9.158;2023-09-19T12:24:33;24.60;99.90
2212;DHT22;48849;48.758;9.158;2023-09-19T12:27:03;24.60;99.90
2212;DHT22;48849;48.758;9.158;2023-09-19T12:29:42;24.60;99.90
2212;DHT22;48849;48.758;9.158;2023-09-19T12:32:10;24.50;99.90
2212;DHT22;48849;48.758;9.158;2023-09-19T12:34:38;24.60;99.90
2212;DHT22;48849;48.758;9.158;2023-09-19T12:37:09;24.50;99.90
2212;DHT22;48849;48.758;9.158;2023-09-19T12:39:44;24.40;99.90
2212;DHT22;48849;48.758;9.158;2023-09-19T12:42:21;24.30;99.90
2212;DHT22;48849;48.758;9.158;2023-09-19T12:45:17;24.20;99.90
2212;DHT22;48849;48.758;9.158;2023-09-19T12:48:19;24.10;99.90
2212;DHT22;48849;48.758;9.158;2023-09-19T12:51:00;24.00;99.90
2212;DHT22;48849;48.758;9.158;2023-09-19T12:53:33;24.00;99.90
2212;DHT22;48849;48.758;9.158;2023-09-19T12:56:07;23.80;99.90
2212;DHT22;48849;48.758;9.158;2023-09-19T12:58:54;23.90;99.90
2212;DHT22;48849;48.758;9.158;2023-09-19T13:01:25;23.90;99.90
2212;DHT22;48849;48.758;9.158;2023-09-19T13:14:32;23.80;99.90
2212;DHT22;48849;48.758;9.158;2023-09-19T13:17:34;24.00;99.90
2212;DHT22;48849;48.758;9.158;2023-09-19T13:20:21;23.80;99.90
2212;DHT22;48849;48.758;9.158;2023-09-19T13:23:08;24.20;99.90
2212;DHT22;48849;48.758;9.158;2023-09-19T13:26:01;23.80;99.90
2212;DHT22;48849;48.758;9.158;2023-09-19T13:28:52;23.80;99.90
2212;DHT22;48849;48.758;9.158;2023-09-19T13:31:45;23.70;99.90
2212;DHT22;48849;48.758;9.158;2023-09-19T13:34:12;23.70;99.90
2212;DHT22;48849;48.758;9.158;2023-09-19T13:36:41;23.60;99.90
2212;DHT22;48849;48.758;9.158;2023-09-19T13:39:08;23.60;99.90
2212;DHT22;48849;48.758;9.158;2023-09-19T13:41:35;23.60;99.90
2212;DHT22;48849;48.758;9.158;2023-09-19T13:44:02;23.60;99.90
2212;DHT22;48849;48.758;9.158;2023-09-19T13:47:06;23.50;99.90
2212;DHT22;48849;48.758;9.158;2023-09-19T13:49:35;23.50;99.90
2212;DHT22;48849;48.758;9.158;2023-09-19T14:26:16;23.20;99.90
2212;DHT22;48849;48.758;9.158;2023-09-19T15:07:57;23.10;99.90
2212;DHT22;48849;48.758;9.158;2023-09-19T15:19:41;23.00;99.90
2212;DHT22;48849;48.758;9.158;2023-09-19T15:25:25;22.90;99.90
2212;DHT22;48849;48.758;9.158;2023-09-19T15:27:58;22.90;99.90
2212;DHT22;48849;48.758;9.158;2023-09-19T15:30:37;22.80;99.90
2212;DHT22;48849;48.758;9.158;2023-09-19T15:33:36;22.90;99.90
2212;DHT22;48849;48.758;9.158;2023-09-19T16:23:26;22.60;99.90
2212;DHT22;48849;48.758;9.158;2023-09-19T16:26:04;22.80;99.90
2212;DHT22;48849;48.758;9.158;2023-09-19T16:35:11;22.60;99.90
2212;DHT22;48849;48.758;9.158;2023-09-19T16:47:55;22.60;99.90
2212;DHT22;48849;48.758;9.158;2023-09-19T16:54:06;22.50;99.90
2212;DHT22;48849;48.758;9.158;2023-09-19T17:02:35;22.40;99.90
2212;DHT22;48849;48.758;9.158;2023-09-19T17:05:07;22.40;99.90
2212;DHT22;48849;48.758;9.158;2023-09-19T17:07:43;22.30;99.90
2212;DHT22;48849;48.758;9.158;2023-09-19T17:10:17;23.00;99.90
2212;DHT22;48849;48.758;9.158;2023-09-19T17:12:47;22.30;99.90
2212;DHT22;48849;48.758;9.158;2023-09-19T17:15:19;22.60;99.90
2212;DHT22;48849;48.758;9.158;2023-09-19T17:18:16;23.90;99.90
2212;DHT22;48849;48.758;9.158;2023-09-19T17:20:47;22.20;99.90
2212;DHT22;48849;48.758;9.158;2023-09-19T17:23:25;22.10;99.90
2212;DHT22;48849;48.758;9.158;2023-09-19T17:26:14;22.10;99.90
2212;DHT22;48849;48.758;9.158;2023-09-19T17:28:53;21.90;99.90
2212;DHT22;48849;48.758;9.158;2023-09-19T17:31:21;22.40;99.90
2212;DHT22;48849;48.758;9.158;2023-09-19T17:33:50;22.30;99.90
2212;DHT22;48849;48.758;9.158;2023-09-19T17:37:36;22.20;99.90
2212;DHT22;48849;48.758;9.158;2023-09-19T17:39:47;22.00;99.90
2212;DHT22;48849;48.758;9.158;2023-09-19T17:42:16;22.00;99.90
2212;DHT22;48849;48.758;9.158;2023-09-19T17:44:43;22.00;99.90
2212;DHT22;48849;48.758;9.158;2023-09-19T17:47:10;22.50;99.90
2212;DHT22;48849;48.758;9.158;2023-09-19T17:49:43;22.20;99.90
2212;DHT22;48849;48.758;9.158;2023-09-19T17:52:26;21.90;99.90
2212;DHT22;48849;48.758;9.158;2023-09-19T17:54:59;23.10;99.90
2212;DHT22;48849;48.758;9.158;2023-09-19T17:57:46;22.00;99.90
2212;DHT22;48849;48.758;9.158;2023-09-19T18:00:32;21.80;99.90
2212;DHT22;48849;48.758;9.158;2023-09-19T18:03:10;21.80;99.90
2212;DHT22;48849;48.758;9.158;2023-09-19T18:09:10;21.70;99.90
2212;DHT22;48849;48.758;9.158;2023-09-19T18:24:23;21.60;99.90
2212;DHT22;48849;48.758;9.158;2023-09-19T18:32:50;21.50;99.90
2212;DHT22;48849;48.758;9.158;2023-09-19T18:45:00;21.40;99.90
2212;DHT22;48849;48.758;9.158;2023-09-19T18:47:27;21.40;99.90
2212;DHT22;48849;48.758;9.158;2023-09-19T18:49:54;21.40;99.90
2212;DHT22;48849;48.758;9.158;2023-09-19T18:52:21;21.30;99.90
2212;DHT22;48849;48.758;9.158;2023-09-19T18:55:01;22.00;99.90
2212;DHT22;48849;48.758;9.158;2023-09-19T18:58:03;20.80;99.90
2212;DHT22;48849;48.758;9.158;2023-09-19T19:01:02;21.20;99.90
2212;DHT22;48849;48.758;9.158;2023-09-19T19:03:51;21.20;99.90
2212;DHT22;48849;48.758;9.158;2023-09-19T19:09:35;21.20;99.90
2212;DHT22;48849;48.758;9.158;2023-09-19T19:12:03;21.10;99.90
2212;DHT22;48849;48.758;9.158;2023-09-19T19:43:01;21.00;99.90
2212;DHT22;48849;48.758;9.158;2023-09-19T20:13:17;20.80;99.90
2212;DHT22;48849;48.758;9.158;2023-09-19T20:18:38;20.80;99.90
2212;DHT22;48849;48.758;9.158;2023-09-19T20:34:51;20.50;99.90
2212;DHT22;48849;48.758;9.158;2023-09-19T20:37:28;20.50;99.90
2212;DHT22;48849;48.758;9.158;2023-09-19T20:39:56;20.50;99.90
2212;DHT22;48849;48.758;9.158;2023-09-19T20:42:25;20.50;99.90
2212;DHT22;48849;48.758;9.158;2023-09-19T20:44:53;20.50;99.90
2212;DHT22;48849;48.758;9.158;2023-09-19T20:47:23;20.50;99.90
2212;DHT22;48849;48.758;9.158;2023-09-19T20:49:55;20.50;99.90
2212;DHT22;48849;48.758;9.158;2023-09-19T20:52:31;20.40;99.90
2212;DHT22;48849;48.758;9.158;2023-09-19T20:55:41;20.40;99.90
2212;DHT22;48849;48.758;9.158;2023-09-19T20:58:39;20.40;99.90
2212;DHT22;48849;48.758;9.158;2023-09-19T21:07:57;20.20;99.90
2212;DHT22;48849;48.758;9.158;2023-09-19T21:10:24;20.20;99.90
2212;DHT22;48849;48.758;9.158;2023-09-19T21:12:51;20.30;99.90
2212;DHT22;48849;48.758;9.158;2023-09-19T21:15:18;20.20;99.90
2212;DHT22;48849;48.758;9.158;2023-09-19T21:17:45;20.20;99.90
2212;DHT22;48849;48.758;9.158;2023-09-19T21:20:12;20.10;99.90
2212;DHT22;48849;48.758;9.158;2023-09-19T21:22:39;20.10;99.90
2212;DHT22;48849;48.758;9.158;2023-09-19T21:25:08;20.10;99.90
2212;DHT22;48849;48.758;9.158;2023-09-19T21:27:35;20.10;99.90
2212;DHT22;48849;48.758;9.158;2023-09-19T21:30:02;20.00;99.90
2212;DHT22;48849;48.758;9.158;2023-09-19T21:32:30;20.00;99.90
2212;DHT22;48849;48.758;9.158;2023-09-19T21:34:57;20.00;99.90
2212;DHT22;48849;48.758;9.158;2023-09-19T21:37:25;19.90;99.90
2212;DHT22;48849;48.758;9.158;2023-09-19T21:39:52;19.90;99.90
2212;DHT22;48849;48.758;9.158;2023-09-19T21:42:21;19.90;99.90
2212;DHT22;48849;48.758;9.158;2023-09-19T21:44:48;19.90;99.90
2212;DHT22;48849;48.758;9.158;2023-09-19T21:47:15;19.90;99.90
2212;DHT22;48849;48.758;9.158;2023-09-19T21:49:42;19.90;99.90
2212;DHT22;48849;48.758;9.158;2023-09-19T21:52:09;19.90;99.90
2212;DHT22;48849;48.758;9.158;2023-09-19T21:54:35;19.90;99.90
2212;DHT22;48849;48.758;9.158;2023-09-19T21:57:02;19.90;99.90
2212;DHT22;48849;48.758;9.158;2023-09-19T21:59:31;19.80;99.90
2212;DHT22;48849;48.758;9.158;2023-09-19T22:01:58;19.90;99.90
2212;DHT22;48849;48.758;9.158;2023-09-19T22:04:25;19.90;99.90
2212;DHT22;48849;48.758;9.158;2023-09-19T22:06:55;19.80;99.90
2212;DHT22;48849;48.758;9.158;2023-09-19T22:12:25;19.80;99.90
2212;DHT22;48849;48.758;9.158;2023-09-19T22:15:18;19.80;99.90
2212;DHT22;48849;48.758;9.158;2023-09-19T22:21:20;19.70;99.90
2212;DHT22;48849;48.758;9.158;2023-09-19T22:24:30;19.70;99.90
2212;DHT22;48849;48.758;9.158;2023-09-19T22:27:20;19.70;99.90
2212;DHT22;48849;48.758;9.158;2023-09-19T22:29:51;19.60;99.90
2212;DHT22;48849;48.758;9.158;2023-09-19T22:35:37;19.60;99.90